createdAt,value
2022-09-25T00:00:01.189Z,0
2022-09-25T00:01:11.379Z,0
2022-09-25T00:02:01.582Z,0
2022-09-25T00:03:01.203Z,0
2022-09-25T00:04:02.018Z,0
2022-09-25T00:05:01.198Z,0
2022-09-25T00:06:14.440Z,0
2022-09-25T00:07:01.049Z,0
2022-09-25T00:08:00.664Z,0
2022-09-25T00:09:00.527Z,0
2022-09-25T00:10:00.543Z,0
2022-09-25T00:11:00.094Z,0
2022-09-25T00:11:59.671Z,0
2022-09-25T00:13:01.681Z,0
2022-09-25T00:14:01.950Z,0
2022-09-25T00:15:01.359Z,0
2022-09-25T00:16:01.053Z,0
2022-09-25T00:17:01.248Z,0
2022-09-25T00:18:01.602Z,0
2022-09-25T00:19:02.131Z,0
2022-09-25T00:20:01.482Z,0
2022-09-25T00:21:01.072Z,0
2022-09-25T00:22:01.141Z,0
2022-09-25T00:23:01.077Z,0
2022-09-25T00:24:01.101Z,0
2022-09-25T00:25:01.096Z,0
2022-09-25T00:26:01.203Z,0
2022-09-25T00:27:01.508Z,0
2022-09-25T00:28:01.043Z,0
2022-09-25T00:29:01.058Z,0
2022-09-25T00:30:01.444Z,0
2022-09-25T00:31:01.217Z,0
2022-09-25T00:32:01.955Z,0
2022-09-25T00:33:01.851Z,0
2022-09-25T00:34:01.076Z,0
2022-09-25T00:35:01.350Z,0
2022-09-25T00:36:01.963Z,0
2022-09-25T00:37:01.600Z,0
2022-09-25T00:38:01.132Z,0
2022-09-25T00:39:01.238Z,0
2022-09-25T00:40:01.104Z,0
2022-09-25T00:41:01.282Z,0
2022-09-25T00:42:01.159Z,0
2022-09-25T00:43:01.111Z,0
2022-09-25T00:44:01.250Z,0
2022-09-25T00:45:01.561Z,0
2022-09-25T00:46:01.248Z,0
2022-09-25T00:47:01.044Z,0
2022-09-25T00:48:01.045Z,0
2022-09-25T00:49:01.052Z,0
2022-09-25T00:50:01.068Z,0
2022-09-25T00:51:01.094Z,0
2022-09-25T00:52:01.529Z,0
2022-09-25T00:53:01.294Z,0
2022-09-25T00:54:01.868Z,0
2022-09-25T00:55:01.928Z,0
2022-09-25T00:56:02.954Z,0
2022-09-25T00:57:01.673Z,0
2022-09-25T00:58:01.417Z,0
2022-09-25T00:59:02.534Z,0
2022-09-25T01:00:02.588Z,0
2022-09-25T01:01:02.243Z,0
2022-09-25T01:02:01.294Z,0
2022-09-25T01:03:02.004Z,0
2022-09-25T01:04:01.058Z,0
2022-09-25T01:05:01.149Z,0
2022-09-25T01:06:01.159Z,0
2022-09-25T01:07:01.056Z,0
2022-09-25T01:08:01.087Z,0
2022-09-25T01:09:01.078Z,0
2022-09-25T01:10:01.092Z,0
2022-09-25T01:11:01.048Z,0
2022-09-25T01:12:01.109Z,0
2022-09-25T01:13:01.133Z,0
2022-09-25T01:14:01.470Z,0
2022-09-25T01:15:01.494Z,0
2022-09-25T01:16:01.240Z,0
2022-09-25T01:17:01.227Z,0
2022-09-25T01:18:01.140Z,0
2022-09-25T01:19:01.041Z,0
2022-09-25T01:20:01.765Z,0
2022-09-25T01:21:01.065Z,0
2022-09-25T01:22:01.196Z,0
2022-09-25T01:23:00.964Z,0
2022-09-25T01:24:01.088Z,0
2022-09-25T01:25:01.090Z,0
2022-09-25T01:26:01.157Z,0
2022-09-25T01:27:03.428Z,0
2022-09-25T01:28:01.107Z,0
2022-09-25T01:29:01.044Z,0
2022-09-25T01:30:01.127Z,0
2022-09-25T01:31:01.293Z,0
2022-09-25T01:32:06.350Z,0
2022-09-25T01:33:02.382Z,0
2022-09-25T01:34:01.036Z,0
2022-09-25T01:35:01.126Z,0
2022-09-25T01:36:01.063Z,0
2022-09-25T01:37:09.228Z,0
2022-09-25T01:38:02.609Z,0
2022-09-25T01:39:02.617Z,0
2022-09-25T01:40:01.720Z,0
2022-09-25T01:41:01.866Z,0
2022-09-25T01:42:14.098Z,0
2022-09-25T01:43:03.021Z,0
2022-09-25T01:44:01.023Z,0
2022-09-25T01:45:01.053Z,0
2022-09-25T01:46:01.119Z,0
2022-09-25T01:47:16.199Z,0
2022-09-25T01:48:01.934Z,0
2022-09-25T01:49:02.699Z,0
2022-09-25T01:50:01.872Z,0
2022-09-25T01:51:01.998Z,0
2022-09-25T01:52:01.059Z,0
2022-09-25T01:53:01.045Z,0
2022-09-25T01:54:00.605Z,0
2022-09-25T01:55:00.259Z,0
2022-09-25T01:55:59.849Z,0
2022-09-25T01:57:01.683Z,0
2022-09-25T01:58:01.860Z,0
2022-09-25T01:59:01.395Z,0
2022-09-25T02:00:01.112Z,0
2022-09-25T02:01:01.197Z,0
2022-09-25T02:02:01.175Z,0
2022-09-25T02:03:01.355Z,0
2022-09-25T02:04:01.233Z,0
2022-09-25T02:05:01.269Z,0
2022-09-25T02:06:00.731Z,0
2022-09-25T02:07:00.336Z,0
2022-09-25T02:07:59.893Z,0
2022-09-25T02:08:59.842Z,0
2022-09-25T02:10:01.524Z,0
2022-09-25T02:11:01.094Z,0
2022-09-25T02:12:01.096Z,0
2022-09-25T02:13:02.017Z,0
2022-09-25T02:14:01.190Z,0
2022-09-25T02:15:01.281Z,0
2022-09-25T02:16:01.112Z,0
2022-09-25T02:17:01.205Z,0
2022-09-25T02:18:01.122Z,0
2022-09-25T02:19:00.702Z,0
2022-09-25T02:20:01.015Z,0
2022-09-25T02:21:01.153Z,0
2022-09-25T02:22:01.561Z,0
2022-09-25T02:23:01.268Z,0
2022-09-25T02:24:03.996Z,0
2022-09-25T02:25:01.849Z,0
2022-09-25T02:26:01.861Z,0
2022-09-25T02:27:02.026Z,0
2022-09-25T02:28:01.563Z,0
2022-09-25T02:29:01.240Z,0
2022-09-25T02:30:01.485Z,0
2022-09-25T02:31:02.287Z,0
2022-09-25T02:32:02.295Z,0
2022-09-25T02:33:02.016Z,0
2022-09-25T02:34:01.047Z,0
2022-09-25T02:35:01.327Z,0
2022-09-25T02:36:01.040Z,0
2022-09-25T02:37:01.286Z,0
2022-09-25T02:38:01.574Z,0
2022-09-25T02:39:02.182Z,0
2022-09-25T02:40:01.268Z,0
2022-09-25T02:41:01.088Z,0
2022-09-25T02:42:01.271Z,0
2022-09-25T02:43:01.080Z,0
2022-09-25T02:44:01.128Z,0
2022-09-25T02:45:01.164Z,0
2022-09-25T02:46:01.096Z,0
2022-09-25T02:47:02.129Z,0
2022-09-25T02:48:01.513Z,0
2022-09-25T02:49:01.118Z,0
2022-09-25T02:50:01.118Z,0
2022-09-25T02:51:01.045Z,0
2022-09-25T02:52:01.157Z,0
2022-09-25T02:53:01.144Z,0
2022-09-25T02:54:01.040Z,0
2022-09-25T02:57:03.935Z,0
2022-09-25T02:58:01.086Z,0
2022-09-25T02:59:01.089Z,0
2022-09-25T03:00:01.093Z,0
2022-09-25T03:01:00.845Z,0
2022-09-25T03:02:01.115Z,0
2022-09-25T03:03:01.257Z,0
2022-09-25T03:04:02.473Z,0
2022-09-25T03:05:01.481Z,0
2022-09-25T03:06:01.595Z,0
2022-09-25T03:07:01.250Z,0
2022-09-25T03:08:02.870Z,0
2022-09-25T03:09:01.869Z,0
2022-09-25T03:10:01.039Z,0
2022-09-25T03:11:00.429Z,0
2022-09-25T03:12:00.030Z,0
2022-09-25T03:13:04.277Z,0
2022-09-25T03:14:01.856Z,0
2022-09-25T03:15:01.858Z,0
2022-09-25T03:16:01.713Z,0
2022-09-25T03:17:02.377Z,0
2022-09-25T03:18:08.546Z,0
2022-09-25T03:19:02.444Z,0
2022-09-25T03:20:01.474Z,0
2022-09-25T03:21:01.069Z,0
2022-09-25T03:22:01.135Z,0
2022-09-25T03:23:10.928Z,0
2022-09-25T03:24:01.771Z,0
2022-09-25T03:25:01.040Z,0
2022-09-25T03:26:00.630Z,0
2022-09-25T03:27:00.264Z,0
2022-09-25T03:28:13.560Z,0
2022-09-25T03:29:00.951Z,0
2022-09-25T03:30:01.067Z,0
2022-09-25T03:31:00.947Z,0
2022-09-25T03:32:01.218Z,0
2022-09-25T03:33:16.745Z,0
2022-09-25T03:34:01.396Z,0
2022-09-25T03:35:04.166Z,0
2022-09-25T03:36:02.037Z,0
2022-09-25T03:37:01.112Z,0
2022-09-25T03:38:01.062Z,0
2022-09-25T03:39:01.379Z,0
2022-09-25T03:40:01.059Z,0
2022-09-25T03:44:01.745Z,0
2022-09-25T03:45:01.063Z,0
2022-09-25T03:46:00.720Z,0
2022-09-25T03:47:00.528Z,0
2022-09-25T03:48:00.180Z,0
2022-09-25T03:48:59.718Z,0
2022-09-25T03:50:01.496Z,0
2022-09-25T03:51:01.499Z,0
2022-09-25T03:52:01.223Z,0
2022-09-25T03:53:01.123Z,0
2022-09-25T03:54:00.739Z,0
2022-09-25T03:55:00.368Z,0
2022-09-25T03:55:59.946Z,0
2022-09-25T03:56:59.534Z,0
2022-09-25T03:58:01.102Z,0
2022-09-25T03:59:01.394Z,0
2022-09-25T04:00:01.383Z,0
2022-09-25T04:01:01.830Z,0
2022-09-25T04:02:01.512Z,0
2022-09-25T04:03:01.435Z,0
2022-09-25T04:04:02.589Z,0
2022-09-25T04:05:01.051Z,0
2022-09-25T04:06:00.704Z,0
2022-09-25T04:07:00.298Z,0
2022-09-25T04:07:59.874Z,0
2022-09-25T04:09:02.186Z,0
2022-09-25T04:10:01.574Z,0
2022-09-25T04:11:01.747Z,0
2022-09-25T04:12:01.067Z,0
2022-09-25T04:13:01.058Z,0
2022-09-25T04:14:00.918Z,0
2022-09-25T04:15:01.058Z,0
2022-09-25T04:16:01.452Z,0
2022-09-25T04:17:01.069Z,0
2022-09-25T04:18:05.967Z,0
2022-09-25T04:19:01.790Z,0
2022-09-25T04:20:04.032Z,0
2022-09-25T04:21:01.407Z,0
2022-09-25T04:22:01.123Z,0
2022-09-25T04:23:01.128Z,0
2022-09-25T04:24:01.048Z,0
2022-09-25T04:25:01.761Z,0
2022-09-25T04:26:01.448Z,0
2022-09-25T04:27:02.622Z,0
2022-09-25T04:28:01.256Z,0
2022-09-25T04:29:02.410Z,0
2022-09-25T04:30:01.155Z,0
2022-09-25T04:31:01.336Z,0
2022-09-25T04:32:01.142Z,0
2022-09-25T04:33:01.053Z,0
2022-09-25T04:34:01.056Z,0
2022-09-25T04:35:01.033Z,0
2022-09-25T04:36:01.212Z,0
2022-09-25T04:37:01.064Z,0
2022-09-25T04:38:01.082Z,0
2022-09-25T04:39:00.644Z,0
2022-09-25T04:40:00.216Z,0
2022-09-25T04:40:59.898Z,0
2022-09-25T04:41:59.604Z,0
2022-09-25T04:43:01.683Z,0
2022-09-25T04:44:01.781Z,0
2022-09-25T04:45:01.681Z,0
2022-09-25T04:46:01.435Z,0
2022-09-25T04:47:02.205Z,0
2022-09-25T04:48:01.535Z,0
2022-09-25T04:49:01.851Z,0
2022-09-25T04:50:02.555Z,0
2022-09-25T04:51:01.829Z,0
2022-09-25T04:52:01.114Z,0
2022-09-25T04:53:01.137Z,0
2022-09-25T04:54:01.107Z,0
2022-09-25T04:55:01.109Z,0
2022-09-25T04:56:00.775Z,0
2022-09-25T04:57:00.488Z,0
2022-09-25T04:58:00.124Z,0
2022-09-25T04:59:03.647Z,0
2022-09-25T05:00:00.855Z,0
2022-09-25T05:01:00.792Z,0
2022-09-25T05:02:00.934Z,0
2022-09-25T05:03:01.472Z,0
2022-09-25T05:04:08.887Z,0
2022-09-25T05:05:01.298Z,0
2022-09-25T05:06:01.823Z,0
2022-09-25T05:07:00.804Z,0
2022-09-25T05:08:00.614Z,0
2022-09-25T05:09:08.690Z,0
2022-09-25T05:10:01.188Z,0
2022-09-25T05:11:01.100Z,0
2022-09-25T05:12:01.548Z,0
2022-09-25T05:13:02.151Z,0
2022-09-25T05:14:12.771Z,0
2022-09-25T05:15:01.087Z,0
2022-09-25T05:16:01.189Z,0
2022-09-25T05:17:01.076Z,0
2022-09-25T05:18:01.083Z,0
2022-09-25T05:19:15.352Z,0
2022-09-25T05:20:00.983Z,0
2022-09-25T05:21:00.821Z,0
2022-09-25T05:22:00.821Z,0
2022-09-25T05:23:00.394Z,0
2022-09-25T05:23:59.937Z,0
2022-09-25T05:24:59.573Z,0
2022-09-25T05:26:01.244Z,0
2022-09-25T05:27:01.129Z,0
2022-09-25T05:28:01.232Z,0
2022-09-25T05:29:01.147Z,0
2022-09-25T05:30:01.490Z,0
2022-09-25T05:31:00.948Z,0
2022-09-25T05:32:01.081Z,0
2022-09-25T05:33:01.060Z,0
2022-09-25T05:34:01.089Z,0
2022-09-25T05:35:01.086Z,0
2022-09-25T05:36:00.797Z,0
2022-09-25T05:37:00.621Z,0
2022-09-25T05:38:00.293Z,0
2022-09-25T05:38:59.857Z,0
2022-09-25T05:40:01.858Z,0
2022-09-25T05:41:01.837Z,0
2022-09-25T05:42:00.818Z,0
2022-09-25T05:43:00.517Z,0
2022-09-25T05:44:00.106Z,0
2022-09-25T05:45:04.962Z,0
2022-09-25T05:46:01.435Z,0
2022-09-25T05:47:02.176Z,0
2022-09-25T05:48:01.067Z,0
2022-09-25T05:49:01.059Z,0
2022-09-25T05:50:01.078Z,0
2022-09-25T05:51:01.276Z,0
2022-09-25T05:52:01.080Z,0
2022-09-25T05:53:01.091Z,0
2022-09-25T05:54:01.243Z,0
2022-09-25T05:55:01.223Z,0
2022-09-25T05:56:01.579Z,0
2022-09-25T05:57:01.140Z,0
2022-09-25T05:58:01.126Z,0
2022-09-25T05:59:01.153Z,0.11944444444444444
2022-09-25T06:00:01.143Z,0
2022-09-25T06:01:00.832Z,0
2022-09-25T06:02:00.661Z,0
2022-09-25T06:03:00.372Z,0
2022-09-25T06:03:59.989Z,0
2022-09-25T06:04:59.580Z,0
2022-09-25T06:06:01.688Z,0
2022-09-25T06:07:01.122Z,0
2022-09-25T06:08:01.474Z,0
2022-09-25T06:09:01.092Z,0
2022-09-25T06:10:01.056Z,0
2022-09-25T06:11:00.614Z,0
2022-09-25T06:12:00.205Z,0
2022-09-25T06:12:59.786Z,0
2022-09-25T06:14:01.424Z,0
2022-09-25T06:15:02.488Z,0
2022-09-25T06:16:01.514Z,0
2022-09-25T06:17:01.150Z,0
2022-09-25T06:18:01.269Z,0
2022-09-25T06:19:01.072Z,0
2022-09-25T06:20:01.468Z,0
2022-09-25T06:21:00.646Z,0
2022-09-25T06:22:00.351Z,0
2022-09-25T06:22:59.945Z,0
2022-09-25T06:23:59.541Z,0
2022-09-25T06:25:01.092Z,0
2022-09-25T06:26:01.148Z,0
2022-09-25T06:27:01.808Z,0
2022-09-25T06:28:01.376Z,0
2022-09-25T06:29:03.421Z,0
2022-09-25T06:30:00.714Z,0
2022-09-25T06:31:00.475Z,0
2022-09-25T06:32:00.105Z,0
2022-09-25T06:32:59.689Z,0
2022-09-25T06:34:01.347Z,0
2022-09-25T06:35:01.262Z,0
2022-09-25T06:36:01.058Z,0
2022-09-25T06:37:01.436Z,0
2022-09-25T06:38:01.165Z,0.15833333333333333
2022-09-25T06:39:01.049Z,0
2022-09-25T06:40:03.271Z,0
2022-09-25T06:41:01.002Z,0
2022-09-25T06:42:00.783Z,0
2022-09-25T06:43:00.403Z,0
2022-09-25T06:44:00.255Z,0
2022-09-25T06:45:05.509Z,0
2022-09-25T06:46:00.534Z,0
2022-09-25T06:47:00.132Z,0
2022-09-25T06:47:59.692Z,0
2022-09-25T06:49:01.674Z,0
2022-09-25T06:50:08.412Z,0
2022-09-25T06:51:01.885Z,0
2022-09-25T06:52:01.358Z,0.11944444444444444
2022-09-25T06:53:01.062Z,0
2022-09-25T06:54:01.081Z,0.23888888888888887
2022-09-25T06:55:10.711Z,0
2022-09-25T06:56:00.704Z,0
2022-09-25T06:57:00.397Z,0
2022-09-25T06:57:59.967Z,0
2022-09-25T06:58:59.682Z,0
2022-09-25T07:00:13.886Z,0
2022-09-25T07:01:05.131Z,0
2022-09-25T07:02:01.202Z,0
2022-09-25T07:03:00.605Z,0
2022-09-25T07:04:00.225Z,0
2022-09-25T07:05:14.198Z,0
2022-09-25T07:06:00.729Z,0
2022-09-25T07:07:00.529Z,0
2022-09-25T07:08:00.145Z,0
2022-09-25T07:08:59.737Z,0
2022-09-25T07:10:01.381Z,0
2022-09-25T07:11:01.079Z,0
2022-09-25T07:12:01.697Z,0.15833333333333333
2022-09-25T07:13:01.058Z,0
2022-09-25T07:14:01.047Z,0
2022-09-25T07:15:01.105Z,0.03888888888888889
2022-09-25T07:16:00.794Z,0
2022-09-25T07:17:01.512Z,0
2022-09-25T07:18:01.251Z,0
2022-09-25T07:19:01.167Z,0
2022-09-25T07:20:01.151Z,0
2022-09-25T07:21:00.742Z,0
2022-09-25T07:22:00.578Z,0
2022-09-25T07:23:00.237Z,0
2022-09-25T07:23:59.947Z,0.03888888888888889
2022-09-25T07:24:59.612Z,0
2022-09-25T07:26:01.440Z,0
2022-09-25T07:27:03.855Z,0
2022-09-25T07:28:02.819Z,0
2022-09-25T07:29:01.754Z,0
2022-09-25T07:30:01.108Z,0
2022-09-25T07:31:00.740Z,0
2022-09-25T07:32:00.392Z,0
2022-09-25T07:33:00.392Z,0
2022-09-25T07:34:00.013Z,0
2022-09-25T07:34:59.700Z,0
2022-09-25T07:36:01.906Z,0
2022-09-25T07:37:02.083Z,0
2022-09-25T07:38:01.063Z,0
2022-09-25T07:39:01.101Z,0
2022-09-25T07:40:01.074Z,0
2022-09-25T07:44:37.955Z,0
2022-09-25T07:45:01.332Z,0
2022-09-25T07:46:01.030Z,0
2022-09-25T07:47:01.124Z,0
2022-09-25T07:48:01.058Z,0
2022-09-25T07:49:01.128Z,0
2022-09-25T07:50:01.128Z,0
2022-09-25T07:51:00.719Z,0
2022-09-25T07:52:00.316Z,0
2022-09-25T07:52:59.875Z,0
2022-09-25T07:53:59.517Z,0
2022-09-25T07:55:01.769Z,0
2022-09-25T07:56:06.137Z,0
2022-09-25T07:57:01.774Z,0
2022-09-25T07:58:01.079Z,0
2022-09-25T07:59:01.243Z,0
2022-09-25T08:00:01.237Z,0
2022-09-25T08:01:01.040Z,0
2022-09-25T08:02:01.178Z,0
2022-09-25T08:03:00.671Z,0
2022-09-25T08:04:00.420Z,0
2022-09-25T08:05:00.034Z,0
2022-09-25T08:05:59.711Z,0
2022-09-25T08:07:01.303Z,0
2022-09-25T08:08:01.993Z,0
2022-09-25T08:09:04.577Z,0
2022-09-25T08:10:01.989Z,0
2022-09-25T08:11:01.831Z,0
2022-09-25T08:12:01.753Z,0
2022-09-25T08:13:01.823Z,0
2022-09-25T08:14:02.312Z,0
2022-09-25T08:15:01.525Z,0
2022-09-25T08:16:02.118Z,0
2022-09-25T08:17:01.107Z,0
2022-09-25T08:18:01.105Z,0
2022-09-25T08:19:01.119Z,0
2022-09-25T08:20:01.145Z,0
2022-09-25T08:21:00.719Z,0
2022-09-25T08:22:00.290Z,0
2022-09-25T08:23:00.119Z,0
2022-09-25T08:24:00.127Z,0
2022-09-25T08:24:59.836Z,0
2022-09-25T08:26:02.501Z,0
2022-09-25T08:27:02.746Z,0
2022-09-25T08:28:01.068Z,0
2022-09-25T08:29:01.058Z,0
2022-09-25T08:30:01.090Z,0
2022-09-25T08:31:00.851Z,0
2022-09-25T08:32:01.105Z,0
2022-09-25T08:33:01.104Z,0
2022-09-25T08:34:15.266Z,0
2022-09-25T08:35:01.114Z,0
2022-09-25T08:36:00.636Z,0
2022-09-25T08:37:00.310Z,0
2022-09-25T08:37:59.896Z,0
2022-09-25T08:38:59.498Z,0
2022-09-25T08:40:02.966Z,0
2022-09-25T08:41:01.224Z,0
2022-09-25T08:42:01.050Z,0
2022-09-25T08:43:01.198Z,0
2022-09-25T08:44:01.084Z,0
2022-09-25T08:45:19.921Z,0
2022-09-25T08:46:00.720Z,0
2022-09-25T08:47:00.486Z,0
2022-09-25T08:48:00.061Z,0
2022-09-25T08:49:00.394Z,0
2022-09-25T08:50:00.188Z,0
2022-09-25T08:51:02.492Z,0
2022-09-25T08:52:01.850Z,0
2022-09-25T08:53:01.167Z,0
2022-09-25T08:54:01.157Z,0
2022-09-25T08:55:01.158Z,0.08055555555555555
2022-09-25T08:56:04.422Z,0.08055555555555555
2022-09-25T08:57:01.461Z,0.23888888888888887
2022-09-25T08:58:01.297Z,0.08055555555555555
2022-09-25T08:59:01.318Z,0.23888888888888887
2022-09-25T09:00:02.472Z,0
2022-09-25T09:01:07.071Z,0.11944444444444444
2022-09-25T09:02:01.389Z,0.08055555555555555
2022-09-25T09:03:01.141Z,0
2022-09-25T09:04:01.115Z,0
2022-09-25T09:05:01.122Z,0
2022-09-25T09:06:02.689Z,0
2022-09-25T09:07:25.161Z,0.11944444444444444
2022-09-25T09:08:01.348Z,0.19999999999999998
2022-09-25T09:09:01.148Z,0.03888888888888889
2022-09-25T09:10:01.158Z,0.23888888888888887
2022-09-25T09:11:13.548Z,0
2022-09-25T09:12:01.163Z,0.19999999999999998
2022-09-25T09:13:01.181Z,0
2022-09-25T09:14:01.077Z,0
2022-09-25T09:15:01.084Z,0
2022-09-25T09:16:12.683Z,0
2022-09-25T09:17:01.758Z,0
2022-09-25T09:18:03.650Z,0
2022-09-25T09:19:01.786Z,0
2022-09-25T09:20:01.834Z,0.5166666666666667
2022-09-25T09:21:13.935Z,0.23888888888888887
2022-09-25T09:22:01.469Z,0.15833333333333333
2022-09-25T09:23:01.789Z,0.11944444444444444
2022-09-25T09:24:01.057Z,0.15833333333333333
2022-09-25T09:25:01.040Z,0
2022-09-25T09:26:10.175Z,0
2022-09-25T09:27:01.239Z,0
2022-09-25T09:28:01.142Z,0
2022-09-25T09:29:01.044Z,0.2777777777777778
2022-09-25T09:30:05.454Z,0.03888888888888889
2022-09-25T09:31:00.809Z,0
2022-09-25T09:32:01.090Z,0
2022-09-25T09:33:01.085Z,0
2022-09-25T09:34:01.114Z,0
2022-09-25T09:35:06.278Z,0.19999999999999998
2022-09-25T09:36:00.695Z,0.3972222222222222
2022-09-25T09:37:00.266Z,0
2022-09-25T09:37:59.806Z,0
2022-09-25T09:39:01.405Z,0
2022-09-25T09:40:02.038Z,0
2022-09-25T09:41:01.126Z,0
2022-09-25T09:41:59.502Z,0.31666666666666665
2022-09-25T09:43:01.282Z,0
2022-09-25T09:44:02.009Z,0.18888888888888888
2022-09-25T09:45:02.086Z,0.2777777777777778
2022-09-25T09:46:01.488Z,0.23888888888888887
2022-09-25T09:47:03.044Z,0.21944444444444444
2022-09-25T09:48:01.108Z,0.08055555555555555
2022-09-25T09:49:01.163Z,0
2022-09-25T09:50:01.038Z,0
2022-09-25T09:51:00.680Z,0.15833333333333333
2022-09-25T09:52:00.288Z,0.3972222222222222
2022-09-25T09:52:59.893Z,0.19999999999999998
2022-09-25T09:53:59.469Z,0.08055555555555555
2022-09-25T09:55:02.810Z,0
2022-09-25T09:56:01.081Z,0.3972222222222222
2022-09-25T09:57:01.144Z,0
2022-09-25T09:58:01.313Z,0.11944444444444444
2022-09-25T09:59:01.354Z,0.23888888888888887
2022-09-25T10:00:05.369Z,0.19999999999999998
2022-09-25T10:01:15.931Z,0.31666666666666665
2022-09-25T10:02:01.666Z,0.075
2022-09-25T10:03:01.400Z,0
2022-09-25T10:04:01.079Z,0.15833333333333333
2022-09-25T10:05:01.825Z,0.08055555555555555
2022-09-25T10:06:01.542Z,0.08055555555555555
2022-09-25T10:07:01.127Z,0
2022-09-25T10:08:01.168Z,0.15833333333333333
2022-09-25T10:09:01.117Z,0
2022-09-25T10:10:01.135Z,0.08055555555555555
2022-09-25T10:11:00.820Z,0.19999999999999998
2022-09-25T10:12:01.515Z,0.26111111111111107
2022-09-25T10:13:06.199Z,0.08055555555555555
2022-09-25T10:14:01.962Z,0.3972222222222222
2022-09-25T10:15:01.037Z,0.15833333333333333
2022-09-25T10:16:00.601Z,0.15833333333333333
2022-09-25T10:17:00.259Z,0.2777777777777778
2022-09-25T10:17:59.943Z,0.31666666666666665
2022-09-25T10:18:59.679Z,0.5166666666666667
2022-09-25T10:20:01.384Z,0.15833333333333333
2022-09-25T10:21:00.973Z,0.5555555555555556
2022-09-25T10:22:01.263Z,0.019444444444444445
2022-09-25T10:23:00.700Z,0.2777777777777778
2022-09-25T10:24:00.389Z,0.11944444444444444
2022-09-25T10:25:00.074Z,0.03888888888888889
2022-09-25T10:25:59.760Z,0
2022-09-25T10:27:01.537Z,0.5777777777777778
2022-09-25T10:28:02.374Z,0.2777777777777778
2022-09-25T10:29:01.282Z,0.675
2022-09-25T10:30:02.000Z,0.3972222222222222
2022-09-25T10:31:01.110Z,0.19999999999999998
2022-09-25T10:32:01.304Z,0.8138888888888889
2022-09-25T10:33:01.386Z,0.47777777777777775
2022-09-25T10:34:01.482Z,0.18333333333333335
2022-09-25T10:35:04.104Z,0.35833333333333334
2022-09-25T10:36:01.063Z,0.7555555555555555
2022-09-25T10:37:01.096Z,0.3333333333333333
2022-09-25T10:38:01.067Z,0.19999999999999998
2022-09-25T10:39:18.080Z,0.15833333333333333
2022-09-25T10:40:01.150Z,0.03888888888888889
2022-09-25T10:41:00.735Z,0.15833333333333333
2022-09-25T10:42:00.292Z,0.4805555555555555
2022-09-25T10:42:59.906Z,0.15833333333333333
2022-09-25T10:43:59.584Z,0.3972222222222222
2022-09-25T10:45:01.168Z,0.03888888888888889
2022-09-25T10:46:00.802Z,0
2022-09-25T10:47:00.438Z,0.14722222222222223
2022-09-25T10:48:00.030Z,0
2022-09-25T10:48:59.614Z,0
2022-09-25T10:50:01.854Z,0.15833333333333333
2022-09-25T10:51:01.284Z,0.47777777777777775
2022-09-25T10:52:01.294Z,0.036111111111111115
2022-09-25T10:53:01.386Z,0.47777777777777775
2022-09-25T10:54:01.420Z,0.2333333333333333
2022-09-25T10:55:01.181Z,0.31666666666666665
2022-09-25T10:56:00.842Z,0.23888888888888887
2022-09-25T10:57:03.941Z,0.3916666666666666
2022-09-25T10:58:01.174Z,0.4361111111111111
2022-09-25T10:59:01.141Z,0.23888888888888887
2022-09-25T11:00:01.147Z,0.15833333333333333
2022-09-25T11:01:01.132Z,0
2022-09-25T11:02:06.439Z,0
2022-09-25T11:03:01.293Z,0
2022-09-25T11:04:02.273Z,0.23055555555555554
2022-09-25T11:05:01.962Z,0.19999999999999998
2022-09-25T11:06:00.661Z,0.15833333333333333
2022-09-25T11:07:08.373Z,0.23888888888888887
2022-09-25T11:08:01.813Z,0.08055555555555555
2022-09-25T11:09:02.107Z,0.03888888888888889
2022-09-25T11:10:01.788Z,0
2022-09-25T11:11:00.683Z,0.5166666666666667
2022-09-25T11:12:09.928Z,0.23888888888888887
2022-09-25T11:13:01.383Z,0.19999999999999998
2022-09-25T11:14:02.695Z,0
2022-09-25T11:15:02.646Z,0.23888888888888887
2022-09-25T11:16:01.298Z,0.11944444444444444
2022-09-25T11:17:14.403Z,0.18333333333333335
2022-09-25T11:18:01.257Z,0.3972222222222222
2022-09-25T11:19:04.693Z,0.675
2022-09-25T11:20:02.475Z,0.8333333333333333
2022-09-25T11:21:01.433Z,0.675
2022-09-25T11:22:16.095Z,0.49166666666666664
2022-09-25T11:23:01.193Z,0.3972222222222222
2022-09-25T11:24:01.099Z,0.4361111111111111
2022-09-25T11:25:01.744Z,0.11944444444444444
2022-09-25T11:26:01.074Z,0
2022-09-25T11:27:01.048Z,0
2022-09-25T11:28:01.098Z,0.3972222222222222
2022-09-25T11:29:01.428Z,0.6416666666666667
2022-09-25T11:30:01.055Z,0.5972222222222222
2022-09-25T11:31:00.758Z,0.23888888888888887
2022-09-25T11:32:00.413Z,0.15833333333333333
2022-09-25T11:33:00.028Z,0
2022-09-25T11:33:59.609Z,0
2022-09-25T11:35:01.160Z,0
2022-09-25T11:36:00.764Z,0
2022-09-25T11:37:00.349Z,0
2022-09-25T11:38:02.344Z,0.11944444444444444
2022-09-25T11:39:01.083Z,0.15833333333333333
2022-09-25T11:40:01.949Z,0.11944444444444444
2022-09-25T11:41:00.876Z,0.7944444444444444
2022-09-25T11:42:00.410Z,0.47777777777777775
2022-09-25T11:43:00.109Z,0.08055555555555555
2022-09-25T11:44:00.154Z,0.9055555555555554
2022-09-25T11:44:59.793Z,0.31666666666666665
2022-09-25T11:46:01.526Z,0.15833333333333333
2022-09-25T11:47:02.165Z,0.3972222222222222
2022-09-25T11:48:01.151Z,0.5555555555555556
2022-09-25T11:49:01.055Z,1.0333333333333334
2022-09-25T11:50:01.084Z,0.3972222222222222
2022-09-25T11:51:00.677Z,0.47777777777777775
2022-09-25T11:52:00.373Z,0.23888888888888887
2022-09-25T11:52:59.944Z,0.43333333333333335
2022-09-25T11:54:17.865Z,0.08055555555555555
2022-09-25T11:55:01.043Z,0.08055555555555555
2022-09-25T11:56:00.619Z,0.4361111111111111
2022-09-25T11:57:00.276Z,0.03888888888888889
2022-09-25T11:57:59.873Z,0.31666666666666665
2022-09-25T11:59:01.521Z,0.08055555555555555
2022-09-25T12:00:01.179Z,0
2022-09-25T12:01:00.872Z,0
2022-09-25T12:02:01.533Z,0
2022-09-25T12:03:00.758Z,0.31666666666666665
2022-09-25T12:04:00.327Z,0
2022-09-25T12:05:00.005Z,0.03888888888888889
2022-09-25T12:05:59.721Z,0.11944444444444444
2022-09-25T12:07:01.720Z,0.03888888888888889
2022-09-25T12:08:01.751Z,0.03888888888888889
2022-09-25T12:09:01.393Z,0.4361111111111111
2022-09-25T12:10:02.024Z,0.3472222222222222
2022-09-25T12:11:01.123Z,0.11944444444444444
2022-09-25T12:12:01.092Z,0.47777777777777775
2022-09-25T12:13:01.111Z,0.4361111111111111
2022-09-25T12:14:01.041Z,0.23888888888888887
2022-09-25T12:15:01.046Z,0.23888888888888887
2022-09-25T12:16:01.162Z,0.08055555555555555
2022-09-25T12:17:02.338Z,0.5972222222222222
2022-09-25T12:18:01.361Z,1.1333333333333333
2022-09-25T12:19:04.704Z,0.5
2022-09-25T12:20:04.033Z,0.5555555555555556
2022-09-25T12:21:01.452Z,0.5166666666666667
2022-09-25T12:22:01.065Z,0.7555555555555555
2022-09-25T12:23:00.726Z,0.4444444444444445
2022-09-25T12:24:00.487Z,0.9944444444444445
2022-09-25T12:25:00.107Z,0.2777777777777778
2022-09-25T12:25:59.725Z,0
2022-09-25T12:27:01.386Z,0.15833333333333333
2022-09-25T12:28:02.033Z,0.8833333333333333
2022-09-25T12:29:02.129Z,0.4361111111111111
2022-09-25T12:30:01.130Z,0.2777777777777778
2022-09-25T12:31:05.275Z,0
2022-09-25T12:32:01.425Z,0.11944444444444444
2022-09-25T12:33:01.050Z,0.6888888888888889
2022-09-25T12:34:03.805Z,0.5972222222222222
2022-09-25T12:35:01.048Z,0.19999999999999998
2022-09-25T12:36:00.639Z,0.31666666666666665
2022-09-25T12:37:00.234Z,0.2777777777777778
2022-09-25T12:38:01.110Z,0.4555555555555555
2022-09-25T12:39:01.065Z,0.03888888888888889
2022-09-25T12:40:01.756Z,0.7944444444444444
2022-09-25T12:41:00.764Z,1.152777777777778
2022-09-25T12:42:00.366Z,0.5555555555555556
2022-09-25T12:43:04.523Z,0.18333333333333335
2022-09-25T12:44:01.116Z,0.31666666666666665
2022-09-25T12:45:01.720Z,0.15833333333333333
2022-09-25T12:46:00.869Z,0.03888888888888889
2022-09-25T12:47:01.302Z,0.35833333333333334
2022-09-25T12:48:06.845Z,0.1611111111111111
2022-09-25T12:49:02.369Z,0.08055555555555555
2022-09-25T12:50:01.073Z,0.15833333333333333
2022-09-25T12:51:05.178Z,0.15833333333333333
2022-09-25T12:52:01.153Z,0
2022-09-25T12:53:09.231Z,0
2022-09-25T12:54:01.058Z,0.31666666666666665